Time;durP1;ratioP1;P1;durP2;ratioP2;P2;SDS_P1;SDS_P2;PMS_P1;PMS_P2;Temp;Humidity;BMP_temperature;BMP_pressure;BME280_temperature;BME280_humidity;BME280_pressure;Samples;Min_cycle;Max_cycle;Signal;HPM_P1;HPM_P2
2021/09/29 00:01:26;;;;;;;7.75;3.17;;;;;;;;;;4991406;28;20053;-42
2021/09/29 00:03:51;;;;;;;3.30;2.90;;;;;;;;;;4994899;28;20156;-41
2021/09/29 00:06:17;;;;;;;3.60;2.10;;;;;;;;;;4995341;28;20019;-41
2021/09/29 00:08:42;;;;;;;2.92;2.10;;;;;;;;;;4997845;28;20104;-43
2021/09/29 00:11:07;;;;;;;3.33;2.08;;;;;;;;;;4996813;28;20646;-42
2021/09/29 00:13:33;;;;;;;6.50;2.80;;;;;;;;;;4997505;28;20022;-42
2021/09/29 00:15:58;;;;;;;6.85;2.90;;;;;;;;;;4995790;28;20091;-42
2021/09/29 00:18:24;;;;;;;4.07;2.28;;;;;;;;;;4996825;28;20026;-43
2021/09/29 00:20:49;;;;;;;2.78;2.53;;;;;;;;;;4993538;28;20050;-43
2021/09/29 00:23:15;;;;;;;3.63;3.00;;;;;;;;;;4997887;28;20030;-40
2021/09/29 00:25:40;;;;;;;7.80;2.17;;;;;;;;;;4994693;28;20011;-40
2021/09/29 00:28:05;;;;;;;5.72;2.22;;;;;;;;;;4995082;28;20084;-40
2021/09/29 00:30:35;;;;;;;2.47;1.67;;;;;;;;;;4992805;28;20024;-42
2021/09/29 00:33:02;;;;;;;4.95;2.70;;;;;;;;;;4997292;28;20030;-40
2021/09/29 00:35:28;;;;;;;3.80;2.88;;;;;;;;;;5000180;28;20037;-41
2021/09/29 00:37:53;;;;;;;3.30;2.38;;;;;;;;;;4993848;28;20018;-41
2021/09/29 00:40:18;;;;;;;3.45;1.92;;;;;;;;;;4992636;28;20018;-46
2021/09/29 00:42:44;;;;;;;2.90;2.28;;;;;;;;;;4994521;28;20096;-42
2021/09/29 00:45:09;;;;;;;9.25;2.88;;;;;;;;;;4990542;28;20038;-41
2021/09/29 00:47:35;;;;;;;4.00;2.28;;;;;;;;;;4990868;28;20031;-41
2021/09/29 00:50:01;;;;;;;6.57;3.60;;;;;;;;;;4994447;28;20033;-43
2021/09/29 00:52:26;;;;;;;3.35;3.03;;;;;;;;;;4992303;28;20033;-43
2021/09/29 00:54:52;;;;;;;4.60;2.92;;;;;;;;;;4991705;28;20027;-43
2021/09/29 00:57:18;;;;;;;2.92;2.60;;;;;;;;;;4993905;28;20116;-41
2021/09/29 00:59:43;;;;;;;7.80;2.65;;;;;;;;;;4994720;28;20040;-45
2021/09/29 01:02:08;;;;;;;3.22;2.10;;;;;;;;;;4993014;28;20397;-41
2021/09/29 01:04:34;;;;;;;7.32;3.38;;;;;;;;;;4996340;28;20030;-43
2021/09/29 01:07:05;;;;;;;5.50;2.95;;;;;;;;;;4994090;28;20030;-41
2021/09/29 01:09:34;;;;;;;2.53;1.95;;;;;;;;;;4989123;28;20018;-40
2021/09/29 01:12:01;;;;;;;3.25;1.95;;;;;;;;;;4988348;28;20033;-40
2021/09/29 01:14:48;;;;;;;3.15;2.50;;;;;;;;;;4987324;28;20022;-40
2021/09/29 01:17:15;;;;;;;3.38;2.42;;;;;;;;;;4992684;28;20053;-40
2021/09/29 01:19:50;;;;;;;2.75;2.28;;;;;;;;;;4993017;28;20018;-39
2021/09/29 01:22:51;;;;;;;4.50;3.33;;;;;;;;;;4985762;28;20022;-40
2021/09/29 01:25:22;;;;;;;4.43;3.17;;;;;;;;;;5024970;28;20025;-40
2021/09/29 01:27:48;;;;;;;5.10;3.17;;;;;;;;;;4991792;28;20457;-40
2021/09/29 01:30:13;;;;;;;3.35;2.28;;;;;;;;;;4985952;28;20036;-42
2021/09/29 01:32:39;;;;;;;3.15;2.50;;;;;;;;;;4990920;28;20042;-42
2021/09/29 01:35:05;;;;;;;6.18;3.95;;;;;;;;;;4989534;28;20219;-41
2021/09/29 01:37:30;;;;;;;11.50;3.35;;;;;;;;;;4986850;28;20022;-40
2021/09/29 01:39:56;;;;;;;6.45;3.38;;;;;;;;;;4989699;28;20018;-40
2021/09/29 01:42:23;;;;;;;6.75;3.33;;;;;;;;;;4985831;28;20053;-39
2021/09/29 01:44:48;;;;;;;7.72;3.08;;;;;;;;;;4991077;28;20151;-40
2021/09/29 01:47:13;;;;;;;3.13;2.22;;;;;;;;;;4990107;28;20558;-40
2021/09/29 01:49:46;;;;;;;3.33;2.35;;;;;;;;;;4986816;28;20538;-40
2021/09/29 01:52:12;;;;;;;6.60;3.53;;;;;;;;;;4992333;28;20483;-41
2021/09/29 01:54:42;;;;;;;3.75;3.13;;;;;;;;;;4985160;28;20034;-45
2021/09/29 01:57:09;;;;;;;5.68;4.07;;;;;;;;;;4992327;28;20046;-39
2021/09/29 01:59:34;;;;;;;5.25;3.50;;;;;;;;;;4991254;28;20101;-40
2021/09/29 02:01:59;;;;;;;4.90;3.45;;;;;;;;;;4988039;28;20105;-43
2021/09/29 02:04:25;;;;;;;3.75;2.50;;;;;;;;;;4991146;28;20118;-39
2021/09/29 02:06:54;;;;;;;6.03;4.28;;;;;;;;;;4988961;28;20033;-41
2021/09/29 02:09:20;;;;;;;3.30;2.75;;;;;;;;;;4991800;28;20046;-40
2021/09/29 02:11:46;;;;;;;5.90;3.83;;;;;;;;;;4991652;28;20022;-40
2021/09/29 02:14:11;;;;;;;5.00;3.83;;;;;;;;;;4991452;28;20078;-43
2021/09/29 02:16:37;;;;;;;7.35;3.97;;;;;;;;;;4990373;28;20117;-40
2021/09/29 02:19:02;;;;;;;8.98;5.03;;;;;;;;;;4996121;28;20018;-45
2021/09/29 02:21:28;;;;;;;7.88;5.28;;;;;;;;;;4992982;28;20030;-47
2021/09/29 02:23:53;;;;;;;5.85;3.83;;;;;;;;;;4989263;28;20029;-46
2021/09/29 02:26:18;;;;;;;12.02;6.13;;;;;;;;;;4988710;28;20029;-41
2021/09/29 02:28:44;;;;;;;6.85;4.43;;;;;;;;;;4987945;28;20022;-43
2021/09/29 02:31:09;;;;;;;10.90;4.03;;;;;;;;;;4992788;28;20018;-43
2021/09/29 02:33:34;;;;;;;5.70;4.35;;;;;;;;;;4989880;28;20053;-40
2021/09/29 02:35:59;;;;;;;6.07;4.35;;;;;;;;;;4990861;28;20081;-40
2021/09/29 02:38:25;;;;;;;6.15;4.68;;;;;;;;;;4994727;28;20029;-40
2021/09/29 02:40:50;;;;;;;5.57;4.40;;;;;;;;;;4991878;28;20483;-46
2021/09/29 02:43:15;;;;;;;7.55;4.75;;;;;;;;;;4987547;28;20073;-43
2021/09/29 02:45:41;;;;;;;9.27;3.95;;;;;;;;;;4989643;28;20026;-43
2021/09/29 02:48:06;;;;;;;4.85;3.88;;;;;;;;;;4990830;28;20538;-45
2021/09/29 02:50:31;;;;;;;5.13;3.97;;;;;;;;;;4990404;28;20038;-47
2021/09/29 02:52:57;;;;;;;4.10;3.45;;;;;;;;;;4992857;28;20498;-45
2021/09/29 02:55:22;;;;;;;6.05;4.80;;;;;;;;;;4984402;28;20386;-45
2021/09/29 02:57:48;;;;;;;6.93;4.13;;;;;;;;;;4992509;28;20272;-42
2021/09/29 03:00:13;;;;;;;5.15;4.50;;;;;;;;;;4992682;28;20022;-42
2021/09/29 03:02:39;;;;;;;5.22;4.25;;;;;;;;;;4993365;28;20022;-46
2021/09/29 03:05:04;;;;;;;5.10;4.38;;;;;;;;;;4988525;28;20019;-43
2021/09/29 03:07:30;;;;;;;7.20;4.18;;;;;;;;;;4987405;28;20614;-42
2021/09/29 03:09:55;;;;;;;6.38;4.88;;;;;;;;;;4988915;28;20022;-44
2021/09/29 03:12:20;;;;;;;3.72;3.42;;;;;;;;;;4988637;28;20543;-42
2021/09/29 03:14:45;;;;;;;13.73;4.90;;;;;;;;;;4990802;28;20486;-48
2021/09/29 03:17:11;;;;;;;6.78;4.47;;;;;;;;;;4992604;28;20022;-44
2021/09/29 03:19:36;;;;;;;5.57;5.07;;;;;;;;;;4989103;28;20245;-42
2021/09/29 03:22:02;;;;;;;6.70;4.78;;;;;;;;;;4990265;28;20022;-43
2021/09/29 03:24:28;;;;;;;5.30;4.30;;;;;;;;;;4992256;28;20057;-41
2021/09/29 03:26:53;;;;;;;11.95;5.13;;;;;;;;;;4991458;28;20065;-41
2021/09/29 03:29:18;;;;;;;6.25;5.63;;;;;;;;;;4989142;28;20018;-42
2021/09/29 03:31:44;;;;;;;6.97;4.85;;;;;;;;;;4989098;28;20740;-44
2021/09/29 03:34:09;;;;;;;4.43;3.75;;;;;;;;;;4987214;28;20020;-44
2021/09/29 03:36:34;;;;;;;5.78;4.28;;;;;;;;;;4990635;28;20027;-40
2021/09/29 03:39:00;;;;;;;4.50;4.10;;;;;;;;;;4988939;28;20026;-40
2021/09/29 03:41:26;;;;;;;6.38;4.60;;;;;;;;;;4982431;28;20069;-40
2021/09/29 03:43:52;;;;;;;6.07;4.93;;;;;;;;;;4991874;28;20046;-46
2021/09/29 03:46:17;;;;;;;5.30;4.43;;;;;;;;;;4988399;28;20049;-40
2021/09/29 03:48:44;;;;;;;5.82;5.07;;;;;;;;;;4994604;28;20022;-45
2021/09/29 03:51:09;;;;;;;6.45;4.35;;;;;;;;;;4992120;28;20049;-44
2021/09/29 03:53:34;;;;;;;6.75;5.40;;;;;;;;;;4987721;28;20652;-43
2021/09/29 03:56:00;;;;;;;5.10;4.13;;;;;;;;;;4991907;28;20032;-40
2021/09/29 03:58:25;;;;;;;7.20;5.20;;;;;;;;;;4989340;28;20030;-41
2021/09/29 04:00:50;;;;;;;10.15;5.80;;;;;;;;;;4988927;28;20439;-44
2021/09/29 04:03:15;;;;;;;6.28;5.20;;;;;;;;;;4983833;28;20023;-42
2021/09/29 04:05:41;;;;;;;6.07;5.47;;;;;;;;;;4993438;28;20010;-41
2021/09/29 04:08:06;;;;;;;6.32;5.50;;;;;;;;;;4988016;28;20654;-40
2021/09/29 04:10:32;;;;;;;7.43;6.00;;;;;;;;;;4990890;28;20117;-41
2021/09/29 04:12:58;;;;;;;7.25;6.03;;;;;;;;;;4987159;28;20026;-41
2021/09/29 04:15:24;;;;;;;9.05;6.65;;;;;;;;;;4990873;28;20478;-42
2021/09/29 04:17:49;;;;;;;7.18;6.35;;;;;;;;;;4988005;28;20121;-42
2021/09/29 04:20:14;;;;;;;6.15;4.82;;;;;;;;;;4988900;28;20387;-42
2021/09/29 04:22:40;;;;;;;7.70;5.25;;;;;;;;;;4990506;28;20414;-48
2021/09/29 04:25:05;;;;;;;6.90;5.82;;;;;;;;;;4987226;28;20073;-40
2021/09/29 04:27:31;;;;;;;6.35;5.35;;;;;;;;;;4992850;28;20121;-40
2021/09/29 04:29:56;;;;;;;5.78;4.68;;;;;;;;;;4994362;28;20022;-41
2021/09/29 04:32:21;;;;;;;7.38;5.40;;;;;;;;;;4995662;28;20018;-47
2021/09/29 04:34:47;;;;;;;12.30;6.35;;;;;;;;;;4988230;28;20737;-46
2021/09/29 04:37:12;;;;;;;7.75;6.47;;;;;;;;;;4993228;28;20049;-41
2021/09/29 04:39:37;;;;;;;12.73;6.20;;;;;;;;;;4993205;28;20050;-43
2021/09/29 04:42:03;;;;;;;10.13;5.00;;;;;;;;;;4994145;28;20026;-41
2021/09/29 04:44:28;;;;;;;7.20;5.75;;;;;;;;;;4993998;28;20022;-43
2021/09/29 04:46:53;;;;;;;9.43;6.18;;;;;;;;;;4993575;28;20019;-46
2021/09/29 04:49:19;;;;;;;7.20;6.57;;;;;;;;;;4992063;28;20798;-41
2021/09/29 04:51:45;;;;;;;11.55;7.13;;;;;;;;;;4994846;28;20487;-45
2021/09/29 04:54:10;;;;;;;7.90;7.07;;;;;;;;;;4993844;28;20049;-46
2021/09/29 04:56:35;;;;;;;8.63;6.50;;;;;;;;;;4994621;28;20044;-42
2021/09/29 04:59:01;;;;;;;5.55;5.00;;;;;;;;;;4990796;28;20485;-42
2021/09/29 05:01:28;;;;;;;12.10;7.68;;;;;;;;;;4989019;28;20435;-41
2021/09/29 05:03:53;;;;;;;17.20;10.57;;;;;;;;;;4988541;28;20022;-45
2021/09/29 05:06:19;;;;;;;11.65;8.57;;;;;;;;;;4992194;28;20592;-41
2021/09/29 05:08:46;;;;;;;8.07;7.28;;;;;;;;;;4986883;28;20494;-41
2021/09/29 05:11:17;;;;;;;8.13;6.57;;;;;;;;;;4986321;28;20026;-45
2021/09/29 05:13:43;;;;;;;6.63;5.80;;;;;;;;;;4992594;28;20026;-41
2021/09/29 05:16:08;;;;;;;7.75;6.63;;;;;;;;;;4990259;28;20116;-41
2021/09/29 05:18:33;;;;;;;7.47;5.38;;;;;;;;;;4986962;28;20026;-41
2021/09/29 05:20:59;;;;;;;10.45;9.32;;;;;;;;;;4994103;28;20482;-43
2021/09/29 05:23:24;;;;;;;6.35;5.85;;;;;;;;;;4992281;28;20108;-42
2021/09/29 05:25:50;;;;;;;11.85;10.23;;;;;;;;;;4992577;28;20528;-43
2021/09/29 05:28:22;;;;;;;9.80;6.80;;;;;;;;;;4988386;28;20072;-42
2021/09/29 05:30:47;;;;;;;6.35;5.75;;;;;;;;;;4987654;28;20061;-40
2021/09/29 05:33:12;;;;;;;7.95;7.22;;;;;;;;;;4988587;28;20041;-46
2021/09/29 05:35:38;;;;;;;13.52;7.47;;;;;;;;;;4992801;28;20507;-43
2021/09/29 05:38:03;;;;;;;10.45;7.57;;;;;;;;;;4989178;28;20498;-39
2021/09/29 05:40:28;;;;;;;5.97;5.47;;;;;;;;;;4992339;28;20015;-42
2021/09/29 05:42:54;;;;;;;9.15;6.03;;;;;;;;;;4989885;28;20729;-41
2021/09/29 05:45:19;;;;;;;15.45;8.50;;;;;;;;;;4986465;28;20022;-39
2021/09/29 05:47:44;;;;;;;18.85;8.40;;;;;;;;;;4990286;28;20029;-40
2021/09/29 05:50:10;;;;;;;12.98;9.00;;;;;;;;;;4990109;28;20041;-44
2021/09/29 05:52:35;;;;;;;8.15;6.55;;;;;;;;;;4992090;28;20030;-41
2021/09/29 05:55:01;;;;;;;10.65;7.35;;;;;;;;;;4992621;28;20052;-40
2021/09/29 05:57:27;;;;;;;7.72;6.43;;;;;;;;;;4991969;28;20026;-40
2021/09/29 05:59:52;;;;;;;7.82;6.05;;;;;;;;;;4987929;28;20474;-39
2021/09/29 06:02:18;;;;;;;11.13;7.00;;;;;;;;;;4991144;28;20022;-44
2021/09/29 06:04:43;;;;;;;7.93;6.75;;;;;;;;;;4989367;28;20102;-41
2021/09/29 06:07:11;;;;;;;10.93;7.50;;;;;;;;;;4993309;28;20022;-44
2021/09/29 06:09:39;;;;;;;5.35;4.75;;;;;;;;;;4994738;28;20025;-46
2021/09/29 06:12:05;;;;;;;9.27;6.93;;;;;;;;;;4994452;28;20690;-46
2021/09/29 06:14:30;;;;;;;8.60;7.80;;;;;;;;;;4986882;28;20034;-42
2021/09/29 06:17:00;;;;;;;10.27;6.75;;;;;;;;;;4990003;28;20040;-41
2021/09/29 06:19:25;;;;;;;16.50;10.10;;;;;;;;;;4992843;28;20160;-39
2021/09/29 06:21:51;;;;;;;10.18;9.10;;;;;;;;;;4988312;28;20106;-40
2021/09/29 06:24:16;;;;;;;11.95;8.38;;;;;;;;;;4993801;28;20022;-39
2021/09/29 06:26:41;;;;;;;8.60;7.22;;;;;;;;;;4992741;28;20494;-40
2021/09/29 06:29:07;;;;;;;13.50;7.68;;;;;;;;;;4992491;28;20403;-43
2021/09/29 06:31:32;;;;;;;22.23;19.95;;;;;;;;;;4989544;28;20023;-44
2021/09/29 06:33:57;;;;;;;12.02;10.27;;;;;;;;;;4991174;28;20034;-44
2021/09/29 06:36:23;;;;;;;19.10;10.15;;;;;;;;;;4990820;28;20036;-44
2021/09/29 06:38:48;;;;;;;12.65;10.35;;;;;;;;;;4993937;28;20018;-39
2021/09/29 06:41:13;;;;;;;12.55;10.55;;;;;;;;;;4992209;28;20031;-42
2021/09/29 06:43:39;;;;;;;22.90;10.75;;;;;;;;;;4988623;28;20051;-43
2021/09/29 06:46:04;;;;;;;11.40;6.78;;;;;;;;;;4990419;28;20079;-41
2021/09/29 06:48:29;;;;;;;10.13;9.13;;;;;;;;;;4988260;28;20019;-36
2021/09/29 06:50:55;;;;;;;13.23;9.45;;;;;;;;;;4988417;28;20278;-36
2021/09/29 06:53:21;;;;;;;11.48;9.93;;;;;;;;;;4986561;28;20032;-38
2021/09/29 06:55:47;;;;;;;199.30;41.97;;;;;;;;;;4986835;28;20026;-36
2021/09/29 06:58:12;;;;;;;13.07;9.85;;;;;;;;;;4987882;28;20052;-41
2021/09/29 07:00:38;;;;;;;10.63;9.45;;;;;;;;;;4986348;28;20488;-41
2021/09/29 07:03:03;;;;;;;11.25;10.32;;;;;;;;;;4987965;28;20566;-45
2021/09/29 07:05:28;;;;;;;21.20;11.82;;;;;;;;;;4992459;28;20568;-40
2021/09/29 07:07:54;;;;;;;16.05;13.35;;;;;;;;;;4980552;28;20030;-43
2021/09/29 07:10:22;;;;;;;16.00;14.63;;;;;;;;;;4983439;28;20023;-44
2021/09/29 07:12:47;;;;;;;18.65;16.83;;;;;;;;;;4990157;28;20618;-42
2021/09/29 07:15:13;;;;;;;17.67;15.35;;;;;;;;;;4986113;28;20037;-42
2021/09/29 07:17:38;;;;;;;22.67;16.73;;;;;;;;;;4986408;28;20035;-43
2021/09/29 07:20:04;;;;;;;15.15;13.10;;;;;;;;;;4988112;28;20037;-42
2021/09/29 07:22:30;;;;;;;29.35;16.77;;;;;;;;;;4989792;28;20014;-41
2021/09/29 07:24:55;;;;;;;32.30;16.85;;;;;;;;;;4988790;28;20037;-42
2021/09/29 07:27:21;;;;;;;21.30;17.23;;;;;;;;;;4988404;28;20057;-43
2021/09/29 07:29:46;;;;;;;26.45;19.65;;;;;;;;;;4986352;28;20434;-42
2021/09/29 07:32:12;;;;;;;23.98;21.75;;;;;;;;;;4991635;28;20359;-43
2021/09/29 07:34:37;;;;;;;27.95;23.25;;;;;;;;;;4986495;28;20516;-44
2021/09/29 07:37:03;;;;;;;28.52;22.58;;;;;;;;;;4988624;28;20083;-47
2021/09/29 07:39:28;;;;;;;29.90;23.85;;;;;;;;;;4984972;28;20042;-42
2021/09/29 07:41:53;;;;;;;26.17;17.30;;;;;;;;;;4985961;28;20079;-48
2021/09/29 07:44:19;;;;;;;33.75;17.38;;;;;;;;;;4991316;28;20067;-48
2021/09/29 07:46:46;;;;;;;20.13;18.20;;;;;;;;;;4981956;28;20462;-46
2021/09/29 07:49:12;;;;;;;25.02;19.17;;;;;;;;;;4985337;28;20031;-47
2021/09/29 07:51:37;;;;;;;27.17;18.00;;;;;;;;;;4988477;28;20031;-49
2021/09/29 07:54:03;;;;;;;20.95;18.88;;;;;;;;;;4990701;28;20026;-44
2021/09/29 07:56:28;;;;;;;24.83;18.75;;;;;;;;;;4980262;28;20103;-42
2021/09/29 07:58:54;;;;;;;33.78;21.45;;;;;;;;;;4984575;28;20026;-47
2021/09/29 08:01:19;;;;;;;25.38;21.23;;;;;;;;;;4988561;28;20388;-47
2021/09/29 08:03:45;;;;;;;28.45;25.17;;;;;;;;;;4989701;28;20026;-42
2021/09/29 08:06:10;;;;;;;36.47;32.67;;;;;;;;;;4993400;28;20128;-47
2021/09/29 08:08:36;;;;;;;44.13;37.53;;;;;;;;;;4993951;28;20029;-47
2021/09/29 08:11:01;;;;;;;61.22;51.55;;;;;;;;;;4991277;28;20551;-47
2021/09/29 08:13:27;;;;;;;74.70;59.20;;;;;;;;;;4989158;28;20133;-47
2021/09/29 08:15:52;;;;;;;79.75;63.50;;;;;;;;;;4989447;28;20087;-44
2021/09/29 08:18:17;;;;;;;77.57;65.18;;;;;;;;;;4989346;28;20061;-43
2021/09/29 08:20:43;;;;;;;65.53;56.10;;;;;;;;;;4990453;28;20119;-43
2021/09/29 08:23:13;;;;;;;67.65;59.08;;;;;;;;;;4984741;28;20022;-47
2021/09/29 08:31:08;;;;;;;69.95;45.55;;;;;;;;;;4993011;28;20088;-45
2021/09/29 08:36:48;;;;;;;66.45;49.55;;;;;;;;;;4978080;28;20038;-45
2021/09/29 08:44:18;;;;;;;29.27;26.30;;;;;;;;;;4983537;28;20616;-43
2021/09/29 08:46:59;;;;;;;38.25;34.70;;;;;;;;;;4986285;28;20066;-45
2021/09/29 09:16:35;;;;;;;9.50;8.57;;;;;;;;;;4987898;28;20080;-42
2021/09/29 09:19:04;;;;;;;11.63;7.63;;;;;;;;;;4992578;28;20022;-41
2021/09/29 09:21:34;;;;;;;9.20;6.47;;;;;;;;;;4990631;28;20020;-43
2021/09/29 09:23:59;;;;;;;8.60;6.95;;;;;;;;;;4983552;28;20045;-43
2021/09/29 09:26:26;;;;;;;6.65;5.53;;;;;;;;;;4984307;28;20027;-44
2021/09/29 09:29:02;;;;;;;6.63;5.35;;;;;;;;;;4985808;28;20069;-41
2021/09/29 09:31:28;;;;;;;7.90;6.50;;;;;;;;;;4990102;28;20625;-44
2021/09/29 09:33:55;;;;;;;12.23;7.53;;;;;;;;;;4983896;28;20105;-43
2021/09/29 09:36:31;;;;;;;15.25;7.50;;;;;;;;;;4984520;28;20124;-42
2021/09/29 09:38:56;;;;;;;39.95;13.73;;;;;;;;;;4989870;28;20018;-42
2021/09/29 09:41:23;;;;;;;20.55;7.75;;;;;;;;;;4990885;28;20022;-42
2021/09/29 09:43:53;;;;;;;8.40;6.50;;;;;;;;;;4984414;28;20050;-40
2021/09/29 09:46:21;;;;;;;14.23;6.50;;;;;;;;;;4990620;28;20030;-43
2021/09/29 09:48:57;;;;;;;15.43;6.28;;;;;;;;;;4985866;28;20022;-43
2021/09/29 09:51:22;;;;;;;29.60;10.55;;;;;;;;;;4990554;28;20031;-42
2021/09/29 09:53:55;;;;;;;14.70;8.32;;;;;;;;;;4987841;28;20026;-42
2021/09/29 09:56:24;;;;;;;13.80;6.65;;;;;;;;;;4990879;28;20446;-43
2021/09/29 09:58:50;;;;;;;6.60;5.93;;;;;;;;;;4990502;28;20748;-44
2021/09/29 10:01:16;;;;;;;7.30;6.32;;;;;;;;;;4986776;28;20026;-42
2021/09/29 10:03:42;;;;;;;11.95;7.25;;;;;;;;;;4987449;28;20022;-42
2021/09/29 10:06:07;;;;;;;7.10;6.20;;;;;;;;;;4982103;28;20033;-44
2021/09/29 10:08:32;;;;;;;5.70;4.97;;;;;;;;;;4986807;28;20030;-47
2021/09/29 10:11:18;;;;;;;11.63;7.55;;;;;;;;;;4988729;28;20402;-42
2021/09/29 10:27:57;;;;;;;4.78;4.13;;;;;;;;;;4988206;28;20038;-40
2021/09/29 10:30:59;;;;;;;7.13;5.72;;;;;;;;;;4987656;28;20022;-43
2021/09/29 10:33:26;;;;;;;8.35;5.70;;;;;;;;;;4994725;28;20024;-43
2021/09/29 10:36:05;;;;;;;3.90;3.55;;;;;;;;;;4988348;28;20079;-41
2021/09/29 10:41:08;;;;;;;16.42;7.07;;;;;;;;;;4990887;28;20573;-41
2021/09/29 10:46:52;;;;;;;6.97;5.47;;;;;;;;;;4988651;28;20076;-44
2021/09/29 11:06:31;;;;;;;6.97;4.82;;;;;;;;;;5009956;28;20045;-43
2021/09/29 11:12:09;;;;;;;4.57;3.85;;;;;;;;;;4989853;28;20127;-41
2021/09/29 11:28:50;;;;;;;6.82;3.65;;;;;;;;;;4991727;28;20045;-43
2021/09/29 11:31:20;;;;;;;4.40;2.83;;;;;;;;;;4988127;28;20117;-41
2021/09/29 11:34:10;;;;;;;6.22;5.63;;;;;;;;;;4980970;28;20027;-42
2021/09/29 11:39:36;;;;;;;4.10;3.28;;;;;;;;;;4980577;28;20601;-41
2021/09/29 12:07:57;;;;;;;6.68;4.90;;;;;;;;;;4980742;28;20037;-43
2021/09/29 12:12:23;;;;;;;4.55;2.95;;;;;;;;;;4988900;28;20303;-44
2021/09/29 12:14:49;;;;;;;4.70;3.25;;;;;;;;;;4984903;28;20093;-50
2021/09/29 12:17:49;;;;;;;5.82;4.43;;;;;;;;;;4982840;28;20029;-45
2021/09/29 12:20:18;;;;;;;3.88;3.13;;;;;;;;;;4996431;28;20115;-45
2021/09/29 12:22:53;;;;;;;4.78;3.45;;;;;;;;;;4985073;28;20031;-41
2021/09/29 12:28:14;;;;;;;6.55;4.28;;;;;;;;;;4988431;28;20384;-49
2021/09/29 12:30:43;;;;;;;12.35;4.32;;;;;;;;;;4986441;28;20027;-41
2021/09/29 12:35:56;;;;;;;7.20;3.45;;;;;;;;;;4985368;28;20481;-47
2021/09/29 12:38:33;;;;;;;12.20;4.32;;;;;;;;;;4981588;28;20050;-45
2021/09/29 12:40:58;;;;;;;14.07;4.90;;;;;;;;;;4985849;28;20018;-44
2021/09/29 12:43:25;;;;;;;3.03;1.95;;;;;;;;;;4987515;28;20084;-47
2021/09/29 12:45:50;;;;;;;13.10;3.75;;;;;;;;;;4983064;28;20109;-44
2021/09/29 12:48:18;;;;;;;6.43;4.32;;;;;;;;;;4986861;28;20105;-41
2021/09/29 12:51:04;;;;;;;5.78;2.30;;;;;;;;;;4989445;28;20026;-45
2021/09/29 12:53:39;;;;;;;3.30;1.88;;;;;;;;;;4986336;28;20030;-47
2021/09/29 12:56:15;;;;;;;12.25;6.10;;;;;;;;;;4985045;28;20570;-45
2021/09/29 12:58:40;;;;;;;6.00;3.20;;;;;;;;;;4988032;28;20033;-48
2021/09/29 13:01:06;;;;;;;8.18;3.97;;;;;;;;;;4988580;28;20022;-44
2021/09/29 13:03:31;;;;;;;5.93;2.28;;;;;;;;;;4988924;28;20052;-47
2021/09/29 13:05:59;;;;;;;8.25;5.07;;;;;;;;;;4985000;28;20129;-41
2021/09/29 13:08:25;;;;;;;5.95;2.10;;;;;;;;;;4986310;28;20149;-43
2021/09/29 13:10:50;;;;;;;9.15;4.70;;;;;;;;;;4990419;28;20112;-41
2021/09/29 13:13:17;;;;;;;8.05;5.05;;;;;;;;;;4990280;28;20025;-43
2021/09/29 13:15:45;;;;;;;5.90;3.47;;;;;;;;;;4989378;28;20084;-42
2021/09/29 13:18:15;;;;;;;3.38;3.03;;;;;;;;;;4988687;28;20493;-44
2021/09/29 13:20:42;;;;;;;;;;;;;;;;;;4988375;28;20025;-46
2021/09/29 13:23:28;;;;;;;5.05;3.97;;;;;;;;;;4989140;28;20023;-43
2021/09/29 13:36:35;;;;;;;6.90;5.78;;;;;;;;;;4986445;28;20427;-44
2021/09/29 13:39:01;;;;;;;5.07;4.57;;;;;;;;;;4987446;28;20057;-42
2021/09/29 13:41:27;;;;;;;15.65;4.70;;;;;;;;;;4990275;28;20208;-49
2021/09/29 13:43:52;;;;;;;14.18;4.63;;;;;;;;;;4989473;28;20574;-44
2021/09/29 13:46:17;;;;;;;2.53;1.73;;;;;;;;;;4987661;28;20024;-42
2021/09/29 13:48:43;;;;;;;5.30;4.78;;;;;;;;;;4986538;28;20084;-43
2021/09/29 13:51:08;;;;;;;6.13;3.22;;;;;;;;;;4986281;28;20570;-49
2021/09/29 13:53:33;;;;;;;5.25;3.95;;;;;;;;;;4988403;28;20049;-41
2021/09/29 13:56:02;;;;;;;14.18;2.47;;;;;;;;;;4986194;28;20553;-47
2021/09/29 14:30:50;;;;;;;5.50;2.15;;;;;;;;;;4991053;28;20106;-44
2021/09/29 14:33:29;;;;;;;6.55;4.70;;;;;;;;;;4989589;28;20042;-41
2021/09/29 14:35:55;;;;;;;12.77;4.13;;;;;;;;;;4990582;28;20022;-47
2021/09/29 14:38:20;;;;;;;5.82;3.58;;;;;;;;;;4988984;28;20029;-45
2021/09/29 14:40:51;;;;;;;19.83;7.50;;;;;;;;;;4990433;28;20023;-48
2021/09/29 14:43:17;;;;;;;6.65;3.80;;;;;;;;;;4991161;28;20502;-41
2021/09/29 14:45:43;;;;;;;4.28;2.70;;;;;;;;;;4986974;28;20057;-43
2021/09/29 14:48:09;;;;;;;8.25;4.38;;;;;;;;;;4988778;28;20495;-41
2021/09/29 14:50:34;;;;;;;8.77;5.10;;;;;;;;;;4985773;28;20042;-44
2021/09/29 14:53:01;;;;;;;12.88;6.22;;;;;;;;;;4988137;28;20026;-45
2021/09/29 14:55:29;;;;;;;9.20;4.53;;;;;;;;;;4983984;28;20038;-43
2021/09/29 14:57:54;;;;;;;9.63;5.13;;;;;;;;;;4988994;28;20027;-43
2021/09/29 15:00:19;;;;;;;6.88;5.88;;;;;;;;;;4983692;28;20015;-43
2021/09/29 15:02:45;;;;;;;7.00;4.72;;;;;;;;;;4995425;28;20015;-45
2021/09/29 15:05:11;;;;;;;6.72;4.72;;;;;;;;;;4984070;28;20042;-41
2021/09/29 15:07:37;;;;;;;12.10;5.32;;;;;;;;;;4988886;28;20126;-44
2021/09/29 15:10:02;;;;;;;8.88;6.78;;;;;;;;;;4987210;28;20084;-44
2021/09/29 15:12:28;;;;;;;12.38;5.47;;;;;;;;;;4985451;28;20034;-41
2021/09/29 15:17:35;;;;;;;6.68;4.57;;;;;;;;;;4987963;28;20033;-44
2021/09/29 15:20:16;;;;;;;5.95;4.40;;;;;;;;;;4981006;28;20022;-42
2021/09/29 15:30:22;;;;;;;31.95;7.38;;;;;;;;;;4989688;28;20368;-44
2021/09/29 16:35:31;;;;;;;12.15;4.72;;;;;;;;;;5025863;28;20496;-46
2021/09/29 16:37:36;;;;;;;7.30;5.18;;;;;;;;;;5000293;28;20026;-49
2021/09/29 16:40:02;;;;;;;4.15;3.75;;;;;;;;;;4995290;28;20025;-45
2021/09/29 16:42:28;;;;;;;6.97;3.95;;;;;;;;;;4990150;28;20053;-50
2021/09/29 16:44:53;;;;;;;16.08;4.93;;;;;;;;;;4991198;28;20034;-46
2021/09/29 16:47:19;;;;;;;7.55;4.72;;;;;;;;;;4992456;28;20025;-44
2021/09/29 16:49:44;;;;;;;5.78;3.25;;;;;;;;;;4994712;28;20106;-45
2021/09/29 16:52:15;;;;;;;4.88;3.70;;;;;;;;;;4992697;28;20029;-43
2021/09/29 16:54:40;;;;;;;5.65;4.35;;;;;;;;;;4989560;28;20030;-45
2021/09/29 16:57:18;;;;;;;10.05;4.32;;;;;;;;;;4993525;28;20029;-44
2021/09/29 17:02:14;;;;;;;10.48;5.45;;;;;;;;;;4998297;28;20018;-43
2021/09/29 17:04:40;;;;;;;4.93;3.47;;;;;;;;;;4993254;28;20033;-44
2021/09/29 17:07:05;;;;;;;6.93;3.88;;;;;;;;;;4988796;28;20031;-43
2021/09/29 17:09:32;;;;;;;12.95;3.90;;;;;;;;;;4990312;28;20495;-47
2021/09/29 17:11:57;;;;;;;5.93;3.38;;;;;;;;;;4993088;28;20033;-43
2021/09/29 17:14:23;;;;;;;5.85;3.92;;;;;;;;;;4991726;28;20673;-46
2021/09/29 17:16:48;;;;;;;6.38;4.07;;;;;;;;;;4987834;28;20065;-48
2021/09/29 17:19:13;;;;;;;4.88;4.00;;;;;;;;;;4991114;28;20493;-47
2021/09/29 17:21:38;;;;;;;11.02;5.03;;;;;;;;;;4986986;28;20035;-45
2021/09/29 17:24:05;;;;;;;15.00;4.72;;;;;;;;;;4991541;28;20577;-49
2021/09/29 17:26:30;;;;;;;11.07;4.72;;;;;;;;;;4994182;28;20025;-49
2021/09/29 17:28:58;;;;;;;3.60;3.10;;;;;;;;;;4990656;28;20455;-47
2021/09/29 17:31:44;;;;;;;7.50;3.28;;;;;;;;;;4991781;28;20034;-45
2021/09/29 17:40:16;;;;;;;7.28;4.88;;;;;;;;;;5051713;28;20123;-46
2021/09/29 17:53:57;;;;;;;6.40;3.72;;;;;;;;;;4993186;28;20037;-43
2021/09/29 17:56:23;;;;;;;14.60;3.35;;;;;;;;;;4994428;28;20022;-45
2021/09/29 17:58:48;;;;;;;9.10;3.30;;;;;;;;;;4989516;28;20030;-43
2021/09/29 18:01:20;;;;;;;16.20;4.45;;;;;;;;;;4987052;28;20390;-42
2021/09/29 18:07:24;;;;;;;4.53;3.45;;;;;;;;;;4993411;28;20368;-47
2021/09/29 18:09:11;;;;;;;6.28;3.67;;;;;;;;;;5002434;28;20030;-42
2021/09/29 18:11:36;;;;;;;3.92;3.40;;;;;;;;;;4994782;28;20098;-46
2021/09/29 18:14:02;;;;;;;11.43;7.50;;;;;;;;;;4994318;28;20075;-42
2021/09/29 18:16:28;;;;;;;12.57;9.63;;;;;;;;;;4990522;28;20518;-42
2021/09/29 18:18:54;;;;;;;19.77;9.63;;;;;;;;;;4989037;28;20027;-41
2021/09/29 18:21:19;;;;;;;17.15;9.70;;;;;;;;;;4993889;28;20026;-48
2021/09/29 18:23:44;;;;;;;12.40;10.20;;;;;;;;;;4987668;28;20018;-43
2021/09/29 18:26:10;;;;;;;13.75;9.05;;;;;;;;;;4991483;28;20025;-40
2021/09/29 18:28:35;;;;;;;11.73;7.50;;;;;;;;;;4988763;28;20368;-44
2021/09/29 18:31:00;;;;;;;8.95;6.65;;;;;;;;;;4994695;28;20025;-44
2021/09/29 18:33:27;;;;;;;11.25;8.88;;;;;;;;;;4985078;28;20471;-44
2021/09/29 18:35:56;;;;;;;8.68;5.65;;;;;;;;;;4989991;28;20109;-45
2021/09/29 18:38:31;;;;;;;12.95;7.47;;;;;;;;;;4990119;28;20105;-41
2021/09/29 18:40:57;;;;;;;18.25;12.75;;;;;;;;;;4993166;28;20026;-42
2021/09/29 18:43:26;;;;;;;8.73;7.72;;;;;;;;;;4992411;28;20051;-41
2021/09/29 18:45:51;;;;;;;8.05;6.65;;;;;;;;;;4986693;28;20014;-44
2021/09/29 18:48:17;;;;;;;14.40;6.47;;;;;;;;;;4989172;28;20026;-44
2021/09/29 18:50:44;;;;;;;13.75;8.05;;;;;;;;;;4987221;28;20678;-41
2021/09/29 18:53:11;;;;;;;9.65;7.85;;;;;;;;;;4992208;28;20029;-44
2021/09/29 18:55:39;;;;;;;13.75;5.28;;;;;;;;;;4987361;28;20068;-46
2021/09/29 19:08:42;;;;;;;10.88;6.22;;;;;;;;;;4993071;28;20061;-47
2021/09/29 19:11:07;;;;;;;11.32;6.05;;;;;;;;;;4987228;28;20015;-45
2021/09/29 19:13:33;;;;;;;9.13;7.45;;;;;;;;;;4988406;28;20060;-48
2021/09/29 19:16:02;;;;;;;7.60;5.47;;;;;;;;;;4986745;28;20026;-44